createdAt,value
2023-02-03T00:00:00.502Z,0.2
2023-02-03T00:04:00.505Z,0.4
2023-02-03T00:08:00.485Z,0.5
2023-02-03T00:12:00.505Z,0.5
2023-02-03T00:16:00.519Z,0.6
2023-02-03T00:20:00.779Z,0.7
2023-02-03T00:24:00.498Z,0.9
2023-02-03T00:28:00.533Z,0.9
2023-02-03T00:32:00.630Z,1.1
2023-02-03T00:36:00.494Z,1.3
2023-02-03T00:40:00.499Z,1.5
2023-02-03T00:44:00.490Z,1.6
2023-02-03T00:48:00.537Z,1.6
2023-02-03T00:52:00.499Z,1.7
2023-02-03T00:56:00.502Z,1.7
2023-02-03T01:00:00.481Z,1.9
2023-02-03T01:04:00.502Z,1.9
2023-02-03T01:08:00.520Z,1.9
2023-02-03T01:12:00.479Z,1.9
2023-02-03T01:16:00.510Z,1.9
2023-02-03T01:20:00.514Z,1.9
2023-02-03T01:24:00.501Z,2.0
2023-02-03T01:28:00.577Z,2.1
2023-02-03T01:32:00.700Z,2.1
2023-02-03T01:36:00.511Z,2.1
2023-02-03T01:40:00.479Z,2.1
2023-02-03T01:44:00.488Z,2.1
2023-02-03T01:48:00.506Z,2.1
2023-02-03T01:52:00.527Z,2.2
2023-02-03T01:56:00.505Z,2.2
2023-02-03T02:00:00.527Z,2.1
2023-02-03T02:04:00.514Z,2.2
2023-02-03T02:08:00.534Z,2.2
2023-02-03T02:12:00.509Z,2.2
2023-02-03T02:16:00.691Z,2.2
2023-02-03T02:20:00.492Z,2.1
2023-02-03T02:24:00.493Z,2.1
2023-02-03T02:28:00.744Z,2.1
2023-02-03T02:32:00.659Z,2.1
2023-02-03T02:36:00.505Z,2.0
2023-02-03T02:40:00.557Z,2.0
2023-02-03T02:44:00.515Z,1.9
2023-02-03T02:48:00.501Z,1.9
2023-02-03T02:52:00.490Z,1.8
2023-02-03T02:56:00.508Z,1.8
2023-02-03T03:00:00.494Z,1.7
2023-02-03T03:04:00.494Z,1.7
2023-02-03T03:08:00.505Z,1.6
2023-02-03T03:12:00.535Z,1.6
2023-02-03T03:16:00.654Z,1.6
2023-02-03T03:20:00.475Z,1.6
2023-02-03T03:24:00.500Z,1.6
2023-02-03T03:28:00.567Z,1.7
2023-02-03T03:32:00.640Z,1.7
2023-02-03T03:36:00.505Z,1.7
2023-02-03T03:40:00.485Z,1.7
2023-02-03T03:44:00.512Z,1.7
2023-02-03T03:48:00.486Z,1.8
2023-02-03T03:52:00.776Z,1.9
2023-02-03T03:56:00.481Z,1.9
2023-02-03T04:00:00.492Z,1.9
2023-02-03T04:04:00.495Z,1.9
2023-02-03T04:08:00.500Z,2.0
2023-02-03T04:12:00.512Z,2.1
2023-02-03T04:16:00.528Z,2.1
2023-02-03T04:20:00.491Z,2.1
2023-02-03T04:24:00.519Z,2.2
2023-02-03T04:28:00.613Z,2.3
2023-02-03T04:32:00.663Z,2.4
2023-02-03T04:36:00.508Z,2.5
2023-02-03T04:40:00.516Z,2.7
2023-02-03T04:44:00.498Z,2.7
2023-02-03T04:48:00.511Z,2.9
2023-02-03T04:52:00.518Z,3.0
2023-02-03T04:56:00.503Z,3.1
2023-02-03T05:00:00.494Z,3.3
2023-02-03T05:04:00.502Z,3.5
2023-02-03T05:08:00.500Z,3.5
2023-02-03T05:12:00.496Z,3.6
2023-02-03T05:16:00.515Z,3.8
2023-02-03T05:20:00.519Z,3.9
2023-02-03T05:24:00.506Z,4.0
2023-02-03T05:28:00.597Z,4.1
2023-02-03T05:32:00.707Z,4.2
2023-02-03T05:36:00.501Z,4.4
2023-02-03T05:40:00.476Z,4.4
2023-02-03T05:44:00.544Z,4.5
2023-02-03T05:48:00.491Z,4.6
2023-02-03T05:52:00.560Z,4.7
2023-02-03T05:56:00.519Z,4.8
2023-02-03T06:00:00.539Z,4.9
2023-02-03T06:04:00.688Z,5.0
2023-02-03T06:08:00.496Z,5.2
2023-02-03T06:12:00.502Z,5.4
2023-02-03T06:16:00.500Z,5.4
2023-02-03T06:20:00.485Z,5.5
2023-02-03T06:24:00.496Z,5.4
2023-02-03T06:28:00.660Z,5.5
2023-02-03T06:32:00.744Z,5.5
2023-02-03T06:36:00.507Z,5.6
2023-02-03T06:40:00.481Z,5.7
2023-02-03T06:44:00.499Z,5.8
2023-02-03T06:48:00.497Z,5.9
2023-02-03T06:52:00.492Z,5.9
2023-02-03T06:56:00.506Z,6.0
2023-02-03T07:00:00.477Z,6.1
2023-02-03T07:04:00.490Z,6.2
2023-02-03T07:08:00.517Z,6.2
2023-02-03T07:12:00.499Z,6.3
2023-02-03T07:16:00.606Z,6.3
2023-02-03T07:20:00.511Z,6.4
2023-02-03T07:24:00.512Z,6.4
2023-02-03T07:28:00.726Z,6.5
2023-02-03T07:32:00.673Z,6.5
2023-02-03T07:36:00.521Z,6.5
2023-02-03T07:40:00.514Z,6.6
2023-02-03T07:44:00.513Z,6.6
2023-02-03T07:48:00.481Z,6.6
2023-02-03T07:52:00.500Z,6.6
2023-02-03T07:56:00.496Z,6.7
2023-02-03T08:00:00.487Z,6.7
2023-02-03T08:04:00.531Z,6.8
2023-02-03T08:08:00.498Z,6.8
2023-02-03T08:12:00.505Z,6.7
2023-02-03T08:16:00.535Z,6.8
2023-02-03T08:20:00.507Z,6.8
2023-02-03T08:24:00.481Z,6.8
2023-02-03T08:28:00.581Z,6.8
2023-02-03T08:32:00.568Z,6.8
2023-02-03T08:36:00.486Z,6.9
2023-02-03T08:40:00.494Z,6.9
2023-02-03T08:44:00.495Z,6.9
2023-02-03T08:48:00.524Z,6.9
2023-02-03T08:52:00.511Z,6.9
2023-02-03T08:56:00.489Z,6.9
2023-02-03T09:00:00.541Z,6.9
2023-02-03T09:04:00.487Z,7.0
2023-02-03T09:08:00.517Z,7.0
2023-02-03T09:12:00.494Z,7.0
2023-02-03T09:16:00.522Z,7.0
2023-02-03T09:20:00.566Z,7.1
2023-02-03T09:24:00.531Z,7.1
2023-02-03T09:28:00.536Z,7.1
2023-02-03T09:32:00.558Z,7.1
2023-02-03T09:36:00.525Z,7.1
2023-02-03T09:40:00.476Z,7.2
2023-02-03T09:44:00.527Z,7.2
2023-02-03T09:48:00.528Z,7.2
2023-02-03T09:52:00.476Z,7.3
2023-02-03T09:56:00.537Z,7.3
2023-02-03T10:00:00.517Z,7.3
2023-02-03T10:04:00.516Z,7.4
2023-02-03T10:08:00.508Z,7.4
2023-02-03T10:12:00.506Z,7.5
2023-02-03T10:16:00.513Z,7.5
2023-02-03T10:20:00.522Z,7.5
2023-02-03T10:24:00.499Z,7.6
2023-02-03T10:28:00.618Z,7.7
2023-02-03T10:32:00.751Z,7.8
2023-02-03T10:36:00.496Z,7.8
2023-02-03T10:40:00.540Z,7.8
2023-02-03T10:44:00.511Z,7.8
2023-02-03T10:48:00.498Z,7.8
2023-02-03T10:52:00.496Z,7.9
2023-02-03T10:56:00.485Z,7.9
2023-02-03T11:00:00.527Z,8.0
2023-02-03T11:04:00.497Z,7.9
2023-02-03T11:08:00.509Z,7.4
2023-02-03T11:12:00.518Z,6.5
2023-02-03T11:16:00.593Z,6.3
2023-02-03T11:20:00.508Z,6.4
2023-02-03T11:24:00.507Z,6.7
2023-02-03T11:28:00.551Z,6.9
2023-02-03T11:32:00.814Z,6.9
2023-02-03T11:36:00.497Z,7.0
2023-02-03T11:40:00.517Z,7.1
2023-02-03T11:44:00.492Z,7.3
2023-02-03T11:48:00.488Z,7.2
2023-02-03T11:52:00.486Z,7.3
2023-02-03T11:56:00.517Z,7.3
2023-02-03T12:00:00.486Z,7.5
2023-02-03T12:04:00.498Z,7.9
2023-02-03T12:08:00.512Z,8.2
2023-02-03T12:12:00.479Z,8.7
2023-02-03T12:16:00.570Z,8.4
2023-02-03T12:20:00.505Z,8.5
2023-02-03T12:24:00.480Z,8.4
2023-02-03T12:28:00.589Z,8.5
2023-02-03T12:32:00.647Z,8.5
2023-02-03T12:36:00.503Z,8.3
2023-02-03T12:40:00.511Z,8.6
2023-02-03T12:44:00.509Z,9.3
2023-02-03T12:48:00.496Z,9.4
2023-02-03T12:52:00.529Z,9.4
2023-02-03T12:56:00.490Z,9.5
2023-02-03T13:00:00.575Z,9.1
2023-02-03T13:04:00.559Z,9.0
2023-02-03T13:08:00.511Z,8.7
2023-02-03T13:12:00.525Z,8.4
2023-02-03T13:16:00.529Z,7.2
2023-02-03T13:20:00.569Z,6.2
2023-02-03T13:24:00.535Z,5.2
2023-02-03T13:28:00.659Z,5.3
2023-02-03T13:32:00.546Z,5.3
2023-02-03T13:36:00.513Z,5.4
2023-02-03T13:40:00.485Z,5.3
2023-02-03T13:44:00.519Z,5.2
2023-02-03T13:48:00.498Z,5.2
2023-02-03T13:52:00.487Z,5.2
2023-02-03T13:56:00.536Z,5.3
2023-02-03T14:00:00.545Z,5.2
2023-02-03T14:04:00.755Z,5.2
2023-02-03T14:08:00.499Z,5.4
2023-02-03T14:12:00.513Z,5.5
2023-02-03T14:16:00.488Z,5.6
2023-02-03T14:20:00.505Z,5.7
2023-02-03T14:24:00.552Z,5.7
2023-02-03T14:28:00.550Z,5.8
2023-02-03T14:32:00.612Z,6.0
2023-02-03T14:36:00.519Z,6.3
2023-02-03T14:40:00.538Z,6.4
2023-02-03T14:44:00.622Z,6.6
2023-02-03T14:48:00.493Z,6.7
2023-02-03T14:52:00.508Z,6.8
2023-02-03T14:56:00.492Z,6.8
2023-02-03T15:00:00.536Z,6.7
2023-02-03T15:04:00.514Z,6.7
2023-02-03T15:08:00.528Z,6.8
2023-02-03T15:12:00.501Z,6.8
2023-02-03T15:16:00.672Z,6.8
2023-02-03T15:20:00.496Z,6.9
2023-02-03T15:24:00.495Z,7.0
2023-02-03T15:28:00.593Z,6.9
2023-02-03T15:32:00.505Z,6.8
2023-02-03T15:36:00.506Z,6.9
2023-02-03T15:40:00.532Z,6.8
2023-02-03T15:44:00.502Z,7.0
2023-02-03T15:48:00.487Z,6.9
2023-02-03T15:52:00.489Z,6.9
2023-02-03T15:56:00.463Z,6.9
2023-02-03T16:00:00.575Z,6.7
2023-02-03T16:04:00.497Z,6.6
2023-02-03T16:08:00.519Z,6.6
2023-02-03T16:12:00.521Z,6.6
2023-02-03T16:16:00.664Z,6.7
2023-02-03T16:20:00.485Z,6.7
2023-02-03T16:24:00.509Z,6.8
2023-02-03T16:28:00.596Z,6.8
2023-02-03T16:32:00.593Z,6.9
2023-02-03T16:36:00.501Z,6.8
2023-02-03T16:40:00.530Z,6.9
2023-02-03T16:44:00.483Z,6.9
2023-02-03T16:48:00.509Z,6.9
2023-02-03T16:52:00.552Z,6.8
2023-02-03T16:56:00.511Z,6.8
2023-02-03T17:00:00.483Z,6.8
2023-02-03T17:04:00.507Z,6.9
2023-02-03T17:08:00.519Z,6.9
2023-02-03T17:12:00.534Z,7.0
2023-02-03T17:16:00.747Z,7.0
2023-02-03T17:20:00.619Z,7.0
2023-02-03T17:24:00.505Z,6.9
2023-02-03T17:28:00.591Z,6.9
2023-02-03T17:32:00.573Z,6.9
2023-02-03T17:36:00.496Z,6.9
2023-02-03T17:56:00.498Z,7.0
2023-02-03T18:00:00.504Z,7.0
2023-02-03T18:04:00.458Z,7.0
2023-02-03T18:08:05.902Z,7.0
2023-02-03T18:12:00.465Z,7.0
2023-02-03T18:16:00.500Z,6.9
2023-02-03T18:20:00.605Z,7.0
2023-02-03T18:24:00.469Z,7.0
2023-02-03T18:28:00.574Z,7.0
2023-02-03T18:32:00.461Z,7.1
2023-02-03T18:36:00.453Z,7.0
2023-02-03T18:40:00.433Z,7.0
2023-02-03T18:44:00.479Z,7.0
2023-02-03T18:48:00.484Z,7.0
2023-02-03T18:52:00.494Z,7.1
2023-02-03T18:56:00.470Z,7.1
2023-02-03T19:00:00.493Z,7.0
2023-02-03T19:04:00.496Z,7.0
2023-02-03T19:08:00.453Z,7.0
2023-02-03T19:12:00.482Z,7.0
2023-02-03T19:16:00.551Z,7.0
2023-02-03T19:20:00.505Z,7.0
2023-02-03T19:24:00.498Z,6.9
2023-02-03T19:28:00.535Z,6.9
2023-02-03T19:32:00.704Z,7.0
2023-02-03T19:36:00.473Z,7.0
2023-02-03T19:40:00.591Z,6.9
2023-02-03T19:44:00.483Z,6.9
2023-02-03T19:48:00.488Z,6.6
2023-02-03T19:52:00.522Z,6.4
2023-02-03T19:56:00.501Z,6.4
2023-02-03T20:00:00.516Z,6.4
2023-02-03T20:04:00.516Z,6.4
2023-02-03T20:08:00.493Z,6.4
2023-02-03T20:12:00.513Z,6.4
2023-02-03T20:16:00.581Z,6.4
2023-02-03T20:20:00.515Z,6.4
2023-02-03T20:24:00.506Z,6.4
2023-02-03T20:28:00.513Z,6.4
2023-02-03T20:32:00.721Z,6.4
2023-02-03T20:36:00.508Z,6.4
2023-02-03T20:40:00.482Z,6.4
2023-02-03T20:44:00.488Z,6.3
2023-02-03T20:48:00.502Z,6.4
2023-02-03T20:52:00.484Z,6.2
2023-02-03T20:56:00.489Z,6.2
2023-02-03T21:00:00.489Z,6.0
2023-02-03T21:04:00.497Z,6.0
2023-02-03T21:08:00.495Z,5.9
2023-02-03T21:12:00.550Z,5.9
2023-02-03T21:16:00.589Z,5.9
2023-02-03T21:20:00.514Z,5.9
2023-02-03T21:24:00.509Z,5.9
2023-02-03T21:28:00.582Z,5.9
2023-02-03T21:32:00.643Z,5.8
2023-02-03T21:36:00.517Z,5.6
2023-02-03T21:40:00.511Z,5.3
2023-02-03T21:44:00.502Z,5.1
2023-02-03T21:48:00.493Z,4.8
2023-02-03T21:52:00.504Z,4.4
2023-02-03T21:56:00.463Z,4.1
2023-02-03T22:00:00.508Z,4.1
2023-02-03T22:04:00.521Z,4.1
2023-02-03T22:08:00.532Z,4.0
2023-02-03T22:12:01.357Z,3.9
2023-02-03T22:16:00.498Z,3.8
2023-02-03T22:20:00.505Z,3.8
2023-02-03T22:24:00.492Z,3.9
2023-02-03T22:28:00.589Z,3.9
2023-02-03T22:32:00.727Z,3.9
2023-02-03T22:36:00.499Z,4.0
2023-02-03T22:40:00.513Z,4.0
2023-02-03T22:44:00.472Z,4.0
2023-02-03T22:48:00.750Z,4.0
2023-02-03T22:52:00.481Z,3.9
2023-02-03T22:56:00.506Z,3.9
2023-02-03T23:00:00.457Z,3.9
2023-02-03T23:04:00.483Z,3.8
2023-02-03T23:08:00.497Z,3.7
2023-02-03T23:12:00.494Z,3.4
2023-02-03T23:16:00.543Z,3.2
2023-02-03T23:20:00.535Z,3.0
2023-02-03T23:24:00.501Z,3.0
2023-02-03T23:28:00.580Z,2.9
2023-02-03T23:32:00.562Z,2.9
2023-02-03T23:36:00.501Z,2.8
2023-02-03T23:40:00.527Z,2.9
2023-02-03T23:44:00.464Z,2.8
2023-02-03T23:48:00.513Z,2.9
2023-02-03T23:52:00.470Z,2.7
2023-02-03T23:56:00.506Z,2.7
